createdAt,value
2019-06-07T00:00:29.605Z,2.80
2019-06-07T00:02:39.545Z,2.80
2019-06-07T00:05:14.952Z,2.47
2019-06-07T00:07:42.097Z,3.37
2019-06-07T00:10:15.336Z,3.47
2019-06-07T00:12:40.610Z,3.63
2019-06-07T00:15:11.706Z,3.37
2019-06-07T00:17:39.715Z,4.20
2019-06-07T00:20:09.371Z,3.80
2019-06-07T00:22:38.211Z,4.17
2019-06-07T00:25:10.005Z,4.47
2019-06-07T00:27:37.108Z,4.10
2019-06-07T00:30:33.801Z,4.50
2019-06-07T00:32:37.845Z,4.73
2019-06-07T00:35:09.201Z,4.60
2019-06-07T00:37:37.752Z,4.57
2019-06-07T00:40:18.623Z,4.50
2019-06-07T00:42:36.287Z,5.83
2019-06-07T00:45:06.435Z,5.10
2019-06-07T00:47:34.841Z,5.43
2019-06-07T00:50:03.963Z,5.47
2019-06-07T00:55:02.632Z,5.30
2019-06-07T00:57:30.989Z,6.00
2019-06-07T00:59:59.466Z,6.00
2019-06-07T01:02:31.273Z,6.73
2019-06-07T01:04:57.956Z,6.30
2019-06-07T01:07:26.297Z,6.93
2019-06-07T01:09:54.718Z,7.60
2019-06-07T01:12:24.596Z,7.43
2019-06-07T01:14:53.161Z,7.60
2019-06-07T01:17:39.839Z,8.10
2019-06-07T01:19:56.530Z,7.90
2019-06-07T01:22:29.071Z,9.00
2019-06-07T01:24:54.996Z,9.10
2019-06-07T01:27:25.448Z,8.77
2019-06-07T01:29:53.442Z,9.47
2019-06-07T01:32:24.689Z,9.47
2019-06-07T01:34:51.955Z,10.30
2019-06-07T01:37:25.042Z,10.33
2019-06-07T01:39:50.421Z,10.67
2019-06-07T01:42:20.431Z,10.80
2019-06-07T01:44:48.876Z,11.17
2019-06-07T01:47:17.864Z,11.40
2019-06-07T01:49:46.873Z,12.10
2019-06-07T01:52:16.474Z,12.30
2019-06-07T01:54:58.455Z,11.57
2019-06-07T01:57:31.071Z,12.20
2019-06-07T01:59:45.431Z,13.13
2019-06-07T02:02:13.849Z,12.47
2019-06-07T02:04:42.272Z,13.10
2019-06-07T02:07:10.659Z,12.77
2019-06-07T02:09:39.082Z,13.03
2019-06-07T02:12:25.218Z,13.77
2019-06-07T02:14:37.688Z,14.97
2019-06-07T02:17:06.108Z,15.00
2019-06-07T02:19:34.497Z,14.77
2019-06-07T02:22:02.964Z,15.60
2019-06-07T02:24:35.301Z,15.80
2019-06-07T02:27:01.402Z,15.90
2019-06-07T02:29:32.930Z,15.87
2019-06-07T02:31:59.852Z,16.27
2019-06-07T02:34:35.251Z,16.93
2019-06-07T02:36:58.303Z,17.07
2019-06-07T02:39:28.844Z,16.97
2019-06-07T02:41:56.948Z,17.43
2019-06-07T02:44:28.587Z,16.90
2019-06-07T02:46:55.398Z,18.13
2019-06-07T02:49:25.180Z,17.20
2019-06-07T02:51:53.932Z,18.17
2019-06-07T02:54:23.970Z,18.53
2019-06-07T02:56:58.818Z,17.37
2019-06-07T02:59:52.677Z,19.43
2019-06-07T03:01:52.573Z,18.67
2019-06-07T03:04:21.069Z,19.30
2019-06-07T03:06:50.143Z,19.67
2019-06-07T03:09:18.885Z,19.97
2019-06-07T03:11:47.697Z,19.60
2019-06-07T03:14:16.644Z,19.63
2019-06-07T03:16:46.690Z,19.77
2019-06-07T03:19:19.375Z,19.87
2019-06-07T03:21:47.755Z,20.00
2019-06-07T03:24:16.232Z,19.70
2019-06-07T03:27:31.814Z,21.30
2019-06-07T03:29:14.761Z,21.07
2019-06-07T03:31:47.534Z,21.47
2019-06-07T03:34:13.211Z,21.17
2019-06-07T03:36:41.616Z,20.63
2019-06-07T03:39:10.027Z,21.33
2019-06-07T03:41:50.177Z,21.40
2019-06-07T03:44:08.487Z,21.30
2019-06-07T03:46:38.994Z,21.77
2019-06-07T03:49:06.957Z,21.93
2019-06-07T03:51:39.276Z,20.87
2019-06-07T03:54:05.504Z,20.63
2019-06-07T03:56:36.032Z,19.60
2019-06-07T03:59:04.007Z,19.70
2019-06-07T04:01:34.733Z,20.70
2019-06-07T04:04:02.472Z,19.70
2019-06-07T04:06:32.578Z,20.63
2019-06-07T04:09:01.029Z,20.17
2019-06-07T04:11:30.071Z,19.40
2019-06-07T04:13:58.691Z,19.77
2019-06-07T04:16:28.836Z,20.53
2019-06-07T04:18:57.161Z,19.70
2019-06-07T04:21:25.603Z,18.67
2019-06-07T04:23:54.005Z,20.17
2019-06-07T04:26:22.379Z,19.03
2019-06-07T04:31:22.178Z,18.77
2019-06-07T04:33:50.856Z,19.50
2019-06-07T04:36:38.915Z,18.13
2019-06-07T04:38:50.028Z,17.80
2019-06-07T04:41:19.067Z,17.70
2019-06-07T04:43:47.499Z,17.13
2019-06-07T04:46:15.981Z,16.93
2019-06-07T04:48:44.383Z,17.10
2019-06-07T04:51:14.579Z,18.30
2019-06-07T04:53:43.501Z,17.67
2019-06-07T04:56:12.005Z,16.43
2019-06-07T04:58:41.322Z,16.43
2019-06-07T05:01:26.376Z,15.60
2019-06-07T05:03:44.074Z,16.23
2019-06-07T05:06:10.098Z,15.17
2019-06-07T05:08:42.536Z,15.43
2019-06-07T05:11:08.545Z,15.20
2019-06-07T05:13:39.036Z,14.37
2019-06-07T05:16:07.012Z,14.70
2019-06-07T05:18:36.356Z,15.47
2019-06-07T05:21:05.468Z,16.33
2019-06-07T05:26:03.911Z,16.23
2019-06-07T05:28:32.658Z,15.87
2019-06-07T05:31:05.039Z,16.10
2019-06-07T05:33:31.810Z,17.17
2019-06-07T05:36:01.228Z,15.50
2019-06-07T05:38:31.015Z,16.40
2019-06-07T05:40:59.644Z,17.90
2019-06-07T05:43:29.200Z,16.43
2019-06-07T05:45:57.645Z,16.10
2019-06-07T05:48:26.876Z,16.20
2019-06-07T05:50:57.215Z,15.83
2019-06-07T05:53:25.527Z,16.70
2019-06-07T05:55:54.172Z,16.47
2019-06-07T05:58:24.125Z,17.00
2019-06-07T06:00:52.531Z,15.37
2019-06-07T06:03:20.938Z,15.23
2019-06-07T06:05:55.031Z,14.73
2019-06-07T06:08:19.428Z,15.27
2019-06-07T06:10:48.904Z,13.83
2019-06-07T06:13:17.560Z,12.97
2019-06-07T06:16:00.437Z,12.20
2019-06-07T06:18:16.012Z,12.30
2019-06-07T06:23:14.542Z,12.87
2019-06-07T06:25:50.984Z,11.53
2019-06-07T06:28:13.878Z,11.60
2019-06-07T06:30:45.682Z,10.53
2019-06-07T06:33:30.731Z,11.07
2019-06-07T06:35:47.507Z,11.20
2019-06-07T06:38:13.539Z,10.50
2019-06-07T06:40:45.122Z,9.60
2019-06-07T06:43:12.008Z,9.47
2019-06-07T06:45:40.419Z,10.07
2019-06-07T06:48:08.802Z,10.77
2019-06-07T06:50:38.611Z,10.73
2019-06-07T06:53:07.595Z,10.43
2019-06-07T06:55:36.070Z,9.83
2019-06-07T06:58:04.491Z,9.70
2019-06-07T07:01:04.845Z,8.90
2019-06-07T07:05:53.312Z,7.73
2019-06-07T07:08:19.764Z,7.53
2019-06-07T07:10:52.090Z,8.10
2019-06-07T07:13:18.298Z,8.10
2019-06-07T07:15:50.015Z,7.60
2019-06-07T07:18:16.716Z,7.87
2019-06-07T07:20:47.252Z,8.80
2019-06-07T07:23:15.156Z,7.50
2019-06-07T07:25:46.203Z,6.70
2019-06-07T07:28:13.680Z,7.60
2019-06-07T07:30:55.385Z,6.97
2019-06-07T07:33:22.537Z,7.70
2019-06-07T07:36:10.873Z,7.53
2019-06-07T07:38:20.981Z,7.50
2019-06-07T07:41:01.880Z,7.13
2019-06-07T07:43:19.423Z,7.60
2019-06-07T07:45:55.088Z,6.97
2019-06-07T07:48:18.578Z,6.87
2019-06-07T07:50:49.650Z,7.07
2019-06-07T07:53:17.224Z,6.93
2019-06-07T07:55:49.492Z,7.30
2019-06-07T07:58:15.637Z,6.50
2019-06-07T08:01:00.707Z,7.10
2019-06-07T08:03:14.152Z,7.20
2019-06-07T08:05:45.005Z,6.90
2019-06-07T08:08:12.597Z,6.63
2019-06-07T08:10:40.976Z,6.83
2019-06-07T08:13:27.256Z,6.83
2019-06-07T08:15:39.484Z,6.77
2019-06-07T08:18:07.984Z,6.50
2019-06-07T08:20:36.352Z,6.63
2019-06-07T08:23:04.996Z,6.20
2019-06-07T08:25:33.395Z,6.70
2019-06-07T08:28:01.766Z,6.57
2019-06-07T08:33:23.964Z,5.60
2019-06-07T08:36:03.584Z,6.77
2019-06-07T08:38:26.693Z,6.03
2019-06-07T08:40:30.539Z,6.47
2019-06-07T08:43:15.091Z,6.17
2019-06-07T08:45:29.168Z,5.77
2019-06-07T08:48:04.403Z,6.00
2019-06-07T08:50:27.650Z,6.40
2019-06-07T08:53:01.065Z,5.90
2019-06-07T08:55:26.168Z,6.10
2019-06-07T08:58:03.359Z,5.80
2019-06-07T09:02:57.456Z,6.07
2019-06-07T09:05:24.852Z,5.80
2019-06-07T09:08:13.367Z,5.70
2019-06-07T09:10:23.328Z,5.60
2019-06-07T09:12:54.419Z,5.70
2019-06-07T09:15:24.077Z,5.80
2019-06-07T09:20:36.364Z,5.50
2019-06-07T09:22:52.070Z,5.50
2019-06-07T09:25:21.668Z,5.20
2019-06-07T09:27:50.414Z,5.33
2019-06-07T09:30:22.073Z,4.80
2019-06-07T09:32:50.458Z,4.73
2019-06-07T09:35:18.861Z,5.17
2019-06-07T09:38:07.699Z,5.80
2019-06-07T09:40:27.326Z,5.60
2019-06-07T09:43:38.255Z,5.17
2019-06-07T09:45:20.639Z,5.60
2019-06-07T09:47:49.017Z,5.97
2019-06-07T09:50:17.396Z,6.03
2019-06-07T09:52:58.071Z,6.47
2019-06-07T09:55:24.221Z,6.07
2019-06-07T09:57:46.065Z,5.93
2019-06-07T10:00:39.289Z,5.90
2019-06-07T10:02:44.500Z,5.63
2019-06-07T10:05:14.309Z,5.83
2019-06-07T10:08:00.112Z,6.13
2019-06-07T10:12:43.107Z,5.47
2019-06-07T10:15:11.484Z,5.33
2019-06-07T10:17:39.958Z,6.00
2019-06-07T10:20:09.744Z,6.30
2019-06-07T10:22:38.257Z,5.17
2019-06-07T10:25:08.329Z,6.00
2019-06-07T10:27:36.707Z,6.17
2019-06-07T10:30:08.406Z,5.83
2019-06-07T10:32:36.841Z,6.27
2019-06-07T10:35:07.672Z,5.80
2019-06-07T10:37:36.415Z,5.90
2019-06-07T10:40:09.264Z,6.10
2019-06-07T10:42:37.864Z,6.07
2019-06-07T10:45:08.346Z,6.60
2019-06-07T10:47:36.932Z,6.33
2019-06-07T10:50:05.965Z,6.57
2019-06-07T10:52:34.497Z,6.53
2019-06-07T10:55:04.468Z,6.37
2019-06-07T10:57:32.958Z,5.90
2019-06-07T11:00:03.333Z,5.57
2019-06-07T11:02:31.577Z,6.30
2019-06-07T11:04:59.951Z,6.27
2019-06-07T11:07:28.354Z,6.23
2019-06-07T11:10:07.438Z,7.10
2019-06-07T11:12:26.856Z,6.43
2019-06-07T11:14:55.249Z,6.70
2019-06-07T11:17:23.687Z,7.20
2019-06-07T11:19:52.120Z,6.90
2019-06-07T11:22:20.537Z,6.60
2019-06-07T11:24:49.080Z,6.20
2019-06-07T11:27:18.969Z,6.20
2019-06-07T11:29:47.525Z,6.03
2019-06-07T11:32:15.921Z,5.83
2019-06-07T11:34:44.317Z,7.00
2019-06-07T11:37:13.793Z,6.40
2019-06-07T11:39:42.754Z,6.00
2019-06-07T11:42:12.072Z,6.50
2019-06-07T11:44:55.815Z,5.80
2019-06-07T11:47:10.613Z,5.60
2019-06-07T11:49:39.008Z,7.10
2019-06-07T11:52:07.401Z,6.80
2019-06-07T11:54:35.828Z,6.57
2019-06-07T11:57:04.556Z,6.17
2019-06-07T11:59:32.998Z,6.23
2019-06-07T12:02:01.494Z,6.80
2019-06-07T12:04:34.939Z,6.10
2019-06-07T12:07:00.158Z,6.87
2019-06-07T12:09:28.703Z,6.63
2019-06-07T12:11:57.099Z,6.17
2019-06-07T12:14:25.481Z,6.67
2019-06-07T12:16:53.897Z,6.20
2019-06-07T12:19:22.305Z,6.33
2019-06-07T12:21:50.712Z,6.20
2019-06-07T12:24:19.802Z,5.87
2019-06-07T12:26:49.150Z,6.37
2019-06-07T12:29:19.112Z,5.70
2019-06-07T12:31:50.140Z,5.43
2019-06-07T12:34:19.511Z,6.40
2019-06-07T12:36:47.955Z,6.57
2019-06-07T12:39:16.346Z,6.30
2019-06-07T12:41:44.773Z,6.43
2019-06-07T12:44:14.513Z,6.73
2019-06-07T12:46:43.061Z,6.50
2019-06-07T12:49:12.869Z,6.57
2019-06-07T12:51:41.475Z,6.33
2019-06-07T12:54:09.838Z,6.67
2019-06-07T12:56:38.251Z,5.77
2019-06-07T12:59:06.658Z,6.03
2019-06-07T13:01:35.034Z,6.13
2019-06-07T13:04:03.455Z,6.67
2019-06-07T13:06:31.844Z,6.23
2019-06-07T13:09:00.264Z,6.23
2019-06-07T13:11:31.617Z,6.53
2019-06-07T13:13:58.722Z,6.77
2019-06-07T13:16:28.409Z,6.93
2019-06-07T13:18:57.017Z,6.20
2019-06-07T13:21:25.410Z,6.33
2019-06-07T13:23:53.832Z,5.77
2019-06-07T13:26:23.072Z,5.83
2019-06-07T13:28:51.838Z,5.70
2019-06-07T13:31:21.063Z,5.63
2019-06-07T13:33:49.703Z,5.43
2019-06-07T13:36:18.169Z,5.53
2019-06-07T13:38:46.618Z,5.47
2019-06-07T13:41:30.211Z,5.53
2019-06-07T13:43:45.103Z,6.17
2019-06-07T13:46:13.509Z,6.27
2019-06-07T13:48:41.889Z,7.07
2019-06-07T13:51:10.289Z,6.50
2019-06-07T13:53:38.693Z,6.90
2019-06-07T13:56:07.100Z,6.63
2019-06-07T13:58:35.524Z,6.67
2019-06-07T14:01:03.890Z,7.17
2019-06-07T14:03:34.047Z,6.30
2019-06-07T14:06:02.331Z,6.30
2019-06-07T14:08:30.770Z,6.57
2019-06-07T14:10:59.170Z,5.83
2019-06-07T14:13:28.099Z,5.70
2019-06-07T14:15:56.571Z,5.40
2019-06-07T14:18:26.330Z,4.70
2019-06-07T14:20:54.867Z,4.40
2019-06-07T14:23:39.063Z,3.60
2019-06-07T14:25:53.294Z,3.53
2019-06-07T14:28:32.241Z,2.90
2019-06-07T14:30:59.166Z,2.40
2019-06-07T14:33:28.748Z,2.23
2019-06-07T14:35:57.644Z,2.30
2019-06-07T14:38:27.280Z,2.30
2019-06-07T14:40:55.835Z,2.20
2019-06-07T14:43:25.112Z,2.20
2019-06-07T14:45:53.779Z,2.00
2019-06-07T14:48:22.222Z,2.40
2019-06-07T14:50:50.668Z,2.43
2019-06-07T14:53:19.255Z,2.53
2019-06-07T14:55:47.675Z,2.10
2019-06-07T14:58:16.075Z,2.20
2019-06-07T15:00:44.973Z,2.10
2019-06-07T15:03:13.383Z,2.50
2019-06-07T15:05:41.785Z,2.23
2019-06-07T15:08:10.339Z,2.20
2019-06-07T15:10:39.273Z,2.20
2019-06-07T15:13:07.834Z,2.23
2019-06-07T15:15:36.241Z,2.43
2019-06-07T15:18:04.620Z,2.30
2019-06-07T15:20:34.083Z,2.20
2019-06-07T15:23:02.628Z,1.67
2019-06-07T15:25:31.216Z,2.00
2019-06-07T15:27:59.686Z,1.70
2019-06-07T15:30:29.486Z,1.30
2019-06-07T15:32:59.755Z,1.37
2019-06-07T15:35:28.161Z,1.50
2019-06-07T15:37:56.549Z,1.60
2019-06-07T15:40:25.057Z,1.60
2019-06-07T15:42:53.499Z,1.90
2019-06-07T15:45:21.832Z,1.77
2019-06-07T15:47:50.473Z,1.77
2019-06-07T15:50:18.864Z,1.40
2019-06-07T15:52:47.303Z,1.57
2019-06-07T15:55:15.705Z,1.40
2019-06-07T15:57:44.126Z,1.40
2019-06-07T16:00:16.577Z,1.80
2019-06-07T16:02:44.940Z,1.70
2019-06-07T16:05:13.419Z,1.57
2019-06-07T16:07:42.867Z,2.00
2019-06-07T16:10:12.021Z,1.80
2019-06-07T16:12:42.088Z,3.50
2019-06-07T16:15:11.231Z,1.60
2019-06-07T16:17:39.654Z,1.50
2019-06-07T16:20:08.085Z,1.70
2019-06-07T16:22:37.602Z,1.90
2019-06-07T16:25:07.471Z,1.77
2019-06-07T16:27:36.744Z,1.63
2019-06-07T16:30:10.105Z,2.07
2019-06-07T16:32:39.357Z,1.60
2019-06-07T16:35:08.341Z,1.53
2019-06-07T16:37:38.190Z,1.80
2019-06-07T16:40:13.906Z,2.10
2019-06-07T16:42:42.892Z,1.70
2019-06-07T16:45:11.731Z,1.90
2019-06-07T16:47:42.476Z,1.70
2019-06-07T16:50:10.851Z,1.70
2019-06-07T16:52:39.282Z,1.90
2019-06-07T16:55:07.703Z,1.90
2019-06-07T16:57:36.686Z,1.90
2019-06-07T17:00:13.318Z,1.60
2019-06-07T17:02:42.287Z,1.90
2019-06-07T17:05:10.814Z,1.30
2019-06-07T17:07:40.314Z,1.50
2019-06-07T17:10:09.294Z,1.53
2019-06-07T17:12:38.526Z,2.10
2019-06-07T17:15:07.951Z,1.70
2019-06-07T17:17:36.362Z,1.70
2019-06-07T17:20:06.490Z,1.50
2019-06-07T17:22:34.921Z,1.80
2019-06-07T17:25:04.190Z,1.30
2019-06-07T17:27:32.587Z,1.23
2019-06-07T17:30:01.096Z,1.60
2019-06-07T17:32:29.548Z,1.80
2019-06-07T17:34:57.959Z,1.30
2019-06-07T17:37:26.333Z,1.70
2019-06-07T17:39:54.742Z,1.20
2019-06-07T17:42:23.141Z,1.27
2019-06-07T17:44:51.625Z,1.40
2019-06-07T17:47:20.053Z,0.83
2019-06-07T17:49:49.679Z,1.10
2019-06-07T17:52:18.497Z,1.10
2019-06-07T17:54:48.006Z,1.13
2019-06-07T17:57:16.464Z,1.30
2019-06-07T17:59:44.841Z,1.10
2019-06-07T18:02:15.536Z,0.83
2019-06-07T18:04:43.400Z,1.30
2019-06-07T18:07:11.783Z,1.10
2019-06-07T18:09:40.207Z,1.17
2019-06-07T18:12:08.612Z,0.73
2019-06-07T18:14:37.006Z,0.93
2019-06-07T18:17:05.405Z,0.93
2019-06-07T18:19:33.809Z,0.70
2019-06-07T18:22:02.200Z,1.00
2019-06-07T18:24:30.596Z,0.90
2019-06-07T18:26:59.003Z,1.00
2019-06-07T18:29:27.391Z,0.90
2019-06-07T18:31:55.802Z,1.00
2019-06-07T18:34:24.300Z,1.10
2019-06-07T18:36:53.148Z,1.00
2019-06-07T18:39:21.504Z,0.90
2019-06-07T18:41:51.778Z,1.10
2019-06-07T18:44:21.797Z,1.10
2019-06-07T18:46:50.187Z,0.87
2019-06-07T18:49:18.576Z,1.10
2019-06-07T18:51:49.670Z,1.33
2019-06-07T18:54:18.104Z,1.20
2019-06-07T18:56:46.788Z,0.97
2019-06-07T18:59:15.247Z,1.00
2019-06-07T19:01:43.675Z,1.20
2019-06-07T19:04:12.077Z,1.07
2019-06-07T19:06:40.485Z,1.07
2019-06-07T19:09:08.978Z,1.00
2019-06-07T19:11:37.861Z,1.07
2019-06-07T19:14:06.247Z,1.00
2019-06-07T19:16:34.675Z,1.13
2019-06-07T19:19:03.079Z,1.40
2019-06-07T19:21:32.468Z,1.20
2019-06-07T19:24:00.928Z,0.97
2019-06-07T19:26:29.338Z,1.00
2019-06-07T19:28:58.786Z,1.23
2019-06-07T19:31:27.291Z,1.03
2019-06-07T19:33:59.367Z,0.97
2019-06-07T19:36:28.115Z,1.00
2019-06-07T19:38:57.843Z,1.10
2019-06-07T19:41:26.468Z,1.10
2019-06-07T19:43:56.116Z,1.00
2019-06-07T19:46:24.696Z,0.97
2019-06-07T19:48:54.320Z,0.90
2019-06-07T19:51:22.903Z,1.00
2019-06-07T19:53:51.320Z,1.00
2019-06-07T19:56:19.726Z,0.90
2019-06-07T19:58:48.151Z,1.13
2019-06-07T20:01:16.589Z,1.00
2019-06-07T20:03:44.959Z,0.93
2019-06-07T20:06:13.367Z,0.70
2019-06-07T20:08:41.768Z,1.03
2019-06-07T20:11:10.572Z,1.10
2019-06-07T20:13:39.089Z,1.00
2019-06-07T20:16:07.508Z,1.03
2019-06-07T20:18:35.896Z,1.07
2019-06-07T20:21:04.962Z,1.30
2019-06-07T20:23:33.515Z,1.10
2019-06-07T20:26:02.503Z,1.27
2019-06-07T20:28:30.980Z,1.00
2019-06-07T20:30:59.739Z,0.97
2019-06-07T20:33:28.151Z,1.73
2019-06-07T20:35:56.645Z,1.73
2019-06-07T20:38:25.052Z,1.67
2019-06-07T20:40:53.457Z,2.20
2019-06-07T20:43:21.885Z,1.17
2019-06-07T20:45:50.287Z,1.13
2019-06-07T20:48:18.697Z,1.20
2019-06-07T20:50:47.358Z,1.10
2019-06-07T20:53:15.773Z,1.10
2019-06-07T20:55:44.187Z,1.20
2019-06-07T20:58:12.587Z,1.17
2019-06-07T21:00:40.996Z,1.37
2019-06-07T21:03:09.715Z,1.50
2019-06-07T21:05:38.213Z,0.93
2019-06-07T21:08:10.669Z,1.20
2019-06-07T21:10:36.652Z,0.93
2019-06-07T21:13:07.999Z,1.17
2019-06-07T21:15:48.465Z,1.30
2019-06-07T21:18:12.053Z,1.17
2019-06-07T21:20:36.724Z,1.00
2019-06-07T21:23:05.123Z,1.13
2019-06-07T21:25:33.529Z,1.00
2019-06-07T21:28:03.028Z,0.80
2019-06-07T21:30:31.565Z,0.80
2019-06-07T21:33:01.258Z,0.97
2019-06-07T21:35:29.735Z,0.90
2019-06-07T21:37:58.157Z,1.03
2019-06-07T21:40:26.569Z,1.10
2019-06-07T21:42:54.976Z,1.00
2019-06-07T21:45:23.425Z,0.80
2019-06-07T21:47:51.875Z,1.10
2019-06-07T21:50:20.393Z,0.90
2019-06-07T21:52:48.826Z,1.10
2019-06-07T21:55:17.216Z,1.00
2019-06-07T21:57:45.634Z,1.17
2019-06-07T22:00:18.900Z,1.00
2019-06-07T22:02:47.281Z,1.00
2019-06-07T22:05:15.770Z,1.30
2019-06-07T22:07:44.173Z,1.70
2019-06-07T22:10:12.667Z,1.87
2019-06-07T22:12:41.041Z,1.30
2019-06-07T22:15:24.038Z,0.90
2019-06-07T22:17:39.756Z,0.67
2019-06-07T22:20:10.806Z,0.63
2019-06-07T22:22:39.430Z,0.83
2019-06-07T22:25:09.218Z,0.80
2019-06-07T22:27:37.802Z,0.90
2019-06-07T22:30:06.738Z,0.77
2019-06-07T22:32:35.164Z,0.90
2019-06-07T22:35:04.803Z,0.80
2019-06-07T22:37:33.207Z,0.90
2019-06-07T22:40:01.702Z,0.90
2019-06-07T22:42:30.528Z,0.80
2019-06-07T22:44:59.450Z,0.80
2019-06-07T22:47:27.905Z,0.90
2019-06-07T22:49:59.149Z,0.93
2019-06-07T22:52:27.557Z,0.80
2019-06-07T22:54:55.982Z,0.77
2019-06-07T22:57:26.051Z,1.47
2019-06-07T22:59:54.481Z,0.90
2019-06-07T23:02:22.875Z,0.80
2019-06-07T23:04:51.277Z,0.77
2019-06-07T23:07:19.690Z,0.80
2019-06-07T23:09:48.124Z,0.83
2019-06-07T23:12:17.575Z,0.80
2019-06-07T23:14:46.209Z,0.87
2019-06-07T23:17:15.750Z,0.73
2019-06-07T23:19:44.334Z,0.80
2019-06-07T23:22:13.780Z,1.37
2019-06-07T23:24:42.210Z,1.30
2019-06-07T23:27:11.205Z,0.90
2019-06-07T23:29:40.779Z,0.90
2019-06-07T23:32:10.475Z,1.13
2019-06-07T23:34:39.716Z,1.17
2019-06-07T23:37:08.097Z,1.13
2019-06-07T23:39:36.518Z,1.37
2019-06-07T23:42:04.920Z,1.37
2019-06-07T23:44:33.343Z,1.03
2019-06-07T23:47:10.837Z,1.33
2019-06-07T23:49:31.830Z,1.23
2019-06-07T23:52:00.231Z,1.37
2019-06-07T23:54:28.631Z,1.10
2019-06-07T23:56:57.040Z,1.60
2019-06-07T23:59:25.484Z,1.17
